sensor_id;sensor_type;location;lat;lon;timestamp;temperature;humidity
36752;DHT22;22718;49.494;7.036;2024-03-08T00:10:23;3.10;99.90
36752;DHT22;22718;49.494;7.036;2024-03-08T00:13:47;3.10;99.90
36752;DHT22;22718;49.494;7.036;2024-03-08T00:17:21;3.10;99.90
36752;DHT22;22718;49.494;7.036;2024-03-08T00:24:48;3.10;99.90
36752;DHT22;22718;49.494;7.036;2024-03-08T00:28:15;3.00;99.90
36752;DHT22;22718;49.494;7.036;2024-03-08T00:35:03;3.00;99.90
36752;DHT22;22718;49.494;7.036;2024-03-08T00:51:51;2.90;99.90
36752;DHT22;22718;49.494;7.036;2024-03-08T00:58:18;2.90;99.90
36752;DHT22;22718;49.494;7.036;2024-03-08T01:01:43;2.90;99.90
36752;DHT22;22718;49.494;7.036;2024-03-08T01:08:58;2.80;99.90
36752;DHT22;22718;49.494;7.036;2024-03-08T01:11:55;2.80;99.90
36752;DHT22;22718;49.494;7.036;2024-03-08T01:14:22;2.80;99.90
36752;DHT22;22718;49.494;7.036;2024-03-08T01:16:54;2.80;99.90
36752;DHT22;22718;49.494;7.036;2024-03-08T01:19:20;2.80;99.90
36752;DHT22;22718;49.494;7.036;2024-03-08T01:36:15;2.70;99.90
36752;DHT22;22718;49.494;7.036;2024-03-08T01:46:36;2.70;99.90
36752;DHT22;22718;49.494;7.036;2024-03-08T01:56:59;2.60;99.90
36752;DHT22;22718;49.494;7.036;2024-03-08T02:00:44;2.60;99.90
36752;DHT22;22718;49.494;7.036;2024-03-08T02:07:53;2.70;99.90
36752;DHT22;22718;49.494;7.036;2024-03-08T02:11:28;2.70;99.90
36752;DHT22;22718;49.494;7.036;2024-03-08T02:15:06;2.60;99.90
36752;DHT22;22718;49.494;7.036;2024-03-08T02:50:10;2.50;99.90
36752;DHT22;22718;49.494;7.036;2024-03-08T02:53:54;2.50;99.90
36752;DHT22;22718;49.494;7.036;2024-03-08T02:57:36;2.50;99.90
36752;DHT22;22718;49.494;7.036;2024-03-08T03:01:17;2.40;99.90
36752;DHT22;22718;49.494;7.036;2024-03-08T03:04:32;2.30;99.90
36752;DHT22;22718;49.494;7.036;2024-03-08T03:21:27;2.20;99.90
36752;DHT22;22718;49.494;7.036;2024-03-08T03:28:28;2.20;99.90
36752;DHT22;22718;49.494;7.036;2024-03-08T03:32:04;2.10;99.90
36752;DHT22;22718;49.494;7.036;2024-03-08T03:38:51;2.00;99.90
36752;DHT22;22718;49.494;7.036;2024-03-08T03:45:36;2.00;99.90
36752;DHT22;22718;49.494;7.036;2024-03-08T03:59:08;1.90;99.90
36752;DHT22;22718;49.494;7.036;2024-03-08T04:02:49;1.90;99.90
36752;DHT22;22718;49.494;7.036;2024-03-08T04:06:25;1.90;99.90
36752;DHT22;22718;49.494;7.036;2024-03-08T04:09:50;1.90;99.90
36752;DHT22;22718;49.494;7.036;2024-03-08T04:23:27;1.80;99.90
36752;DHT22;22718;49.494;7.036;2024-03-08T04:26:53;1.80;99.90
36752;DHT22;22718;49.494;7.036;2024-03-08T04:37:03;1.70;99.90
36752;DHT22;22718;49.494;7.036;2024-03-08T04:44:19;1.60;99.90
36752;DHT22;22718;49.494;7.036;2024-03-08T04:51:09;1.60;99.90
36752;DHT22;22718;49.494;7.036;2024-03-08T04:57:36;1.60;99.90
36752;DHT22;22718;49.494;7.036;2024-03-08T05:01:16;1.50;99.90
36752;DHT22;22718;49.494;7.036;2024-03-08T05:04:39;1.50;99.90
36752;DHT22;22718;49.494;7.036;2024-03-08T05:11:07;1.40;99.90
36752;DHT22;22718;49.494;7.036;2024-03-08T05:18:08;1.40;99.90
36752;DHT22;22718;49.494;7.036;2024-03-08T05:24:53;1.40;99.90
36752;DHT22;22718;49.494;7.036;2024-03-08T05:28:11;1.40;99.90
36752;DHT22;22718;49.494;7.036;2024-03-08T05:35:18;1.30;99.90
36752;DHT22;22718;49.494;7.036;2024-03-08T05:38:47;1.30;99.90
36752;DHT22;22718;49.494;7.036;2024-03-08T05:41:24;1.30;99.90
36752;DHT22;22718;49.494;7.036;2024-03-08T05:46:48;1.30;99.90
36752;DHT22;22718;49.494;7.036;2024-03-08T05:49:14;1.30;99.90
36752;DHT22;22718;49.494;7.036;2024-03-08T05:51:41;1.30;99.90
36752;DHT22;22718;49.494;7.036;2024-03-08T05:54:08;1.30;99.90
36752;DHT22;22718;49.494;7.036;2024-03-08T05:56:37;1.30;99.90
36752;DHT22;22718;49.494;7.036;2024-03-08T05:59:03;1.30;99.90
36752;DHT22;22718;49.494;7.036;2024-03-08T06:01:35;1.30;99.90
36752;DHT22;22718;49.494;7.036;2024-03-08T06:04:02;1.20;99.90
36752;DHT22;22718;49.494;7.036;2024-03-08T06:06:33;1.30;99.90
36752;DHT22;22718;49.494;7.036;2024-03-08T06:09:01;1.30;99.90
36752;DHT22;22718;49.494;7.036;2024-03-08T06:11:34;1.30;99.90
36752;DHT22;22718;49.494;7.036;2024-03-08T06:14:00;1.20;99.90
36752;DHT22;22718;49.494;7.036;2024-03-08T06:16:26;1.30;99.90
36752;DHT22;22718;49.494;7.036;2024-03-08T06:18:58;1.30;99.90
36752;DHT22;22718;49.494;7.036;2024-03-08T06:21:25;1.30;99.90
36752;DHT22;22718;49.494;7.036;2024-03-08T06:23:55;1.40;99.90
36752;DHT22;22718;49.494;7.036;2024-03-08T06:26:25;1.40;99.90
36752;DHT22;22718;49.494;7.036;2024-03-08T06:28:51;1.40;99.90
36752;DHT22;22718;49.494;7.036;2024-03-08T06:31:21;1.50;99.90
36752;DHT22;22718;49.494;7.036;2024-03-08T06:33:53;1.50;99.90
36752;DHT22;22718;49.494;7.036;2024-03-08T06:36:20;1.60;99.90
36752;DHT22;22718;49.494;7.036;2024-03-08T06:45:10;1.70;99.90
36752;DHT22;22718;49.494;7.036;2024-03-08T06:47:48;1.80;99.90
36752;DHT22;22718;49.494;7.036;2024-03-08T06:50:15;1.80;99.90
36752;DHT22;22718;49.494;7.036;2024-03-08T06:52:45;1.90;99.90
36752;DHT22;22718;49.494;7.036;2024-03-08T06:55:23;2.00;99.90
36752;DHT22;22718;49.494;7.036;2024-03-08T07:01:03;2.00;99.90
36752;DHT22;22718;49.494;7.036;2024-03-08T07:03:50;2.10;99.90
36752;DHT22;22718;49.494;7.036;2024-03-08T07:06:30;2.10;99.90
36752;DHT22;22718;49.494;7.036;2024-03-08T07:09:00;2.20;99.90
36752;DHT22;22718;49.494;7.036;2024-03-08T07:11:27;2.20;99.90
36752;DHT22;22718;49.494;7.036;2024-03-08T07:13:55;2.30;99.90
36752;DHT22;22718;49.494;7.036;2024-03-08T07:16:29;2.40;99.90
36752;DHT22;22718;49.494;7.036;2024-03-08T07:19:01;2.50;99.90
36752;DHT22;22718;49.494;7.036;2024-03-08T07:21:35;2.50;99.90
36752;DHT22;22718;49.494;7.036;2024-03-08T07:24:05;2.60;99.90
36752;DHT22;22718;49.494;7.036;2024-03-08T07:26:45;2.70;99.90
36752;DHT22;22718;49.494;7.036;2024-03-08T07:29:15;2.70;99.90
36752;DHT22;22718;49.494;7.036;2024-03-08T07:31:41;2.80;99.90
36752;DHT22;22718;49.494;7.036;2024-03-08T07:34:07;2.90;99.90
36752;DHT22;22718;49.494;7.036;2024-03-08T07:36:33;3.00;99.90
36752;DHT22;22718;49.494;7.036;2024-03-08T07:39:00;3.20;99.90
36752;DHT22;22718;49.494;7.036;2024-03-08T07:41:27;3.20;99.90
36752;DHT22;22718;49.494;7.036;2024-03-08T07:43:55;3.20;99.90
36752;DHT22;22718;49.494;7.036;2024-03-08T07:46:22;3.40;99.90
36752;DHT22;22718;49.494;7.036;2024-03-08T07:48:49;3.50;99.90
36752;DHT22;22718;49.494;7.036;2024-03-08T07:51:21;3.60;99.90
36752;DHT22;22718;49.494;7.036;2024-03-08T07:53:47;3.80;99.90
36752;DHT22;22718;49.494;7.036;2024-03-08T07:56:13;3.80;99.90
36752;DHT22;22718;49.494;7.036;2024-03-08T07:58:40;3.80;99.90
36752;DHT22;22718;49.494;7.036;2024-03-08T08:01:15;3.80;99.90
36752;DHT22;22718;49.494;7.036;2024-03-08T08:03:41;3.90;99.90
36752;DHT22;22718;49.494;7.036;2024-03-08T08:06:07;3.80;99.90
36752;DHT22;22718;49.494;7.036;2024-03-08T08:08:33;3.90;99.90
36752;DHT22;22718;49.494;7.036;2024-03-08T08:10:58;3.90;99.90
36752;DHT22;22718;49.494;7.036;2024-03-08T08:13:24;4.00;99.90
36752;DHT22;22718;49.494;7.036;2024-03-08T08:15:53;4.10;99.90
36752;DHT22;22718;49.494;7.036;2024-03-08T08:18:19;4.20;99.90
36752;DHT22;22718;49.494;7.036;2024-03-08T08:20:47;4.10;99.90
36752;DHT22;22718;49.494;7.036;2024-03-08T08:23:12;4.20;99.90
36752;DHT22;22718;49.494;7.036;2024-03-08T08:25:39;4.20;99.90
36752;DHT22;22718;49.494;7.036;2024-03-08T08:28:04;4.30;99.90
36752;DHT22;22718;49.494;7.036;2024-03-08T08:30:30;4.30;99.90
36752;DHT22;22718;49.494;7.036;2024-03-08T08:32:58;4.20;99.90
36752;DHT22;22718;49.494;7.036;2024-03-08T08:35:26;4.20;99.90
36752;DHT22;22718;49.494;7.036;2024-03-08T08:37:52;4.20;99.90
36752;DHT22;22718;49.494;7.036;2024-03-08T08:40:17;4.20;99.90
36752;DHT22;22718;49.494;7.036;2024-03-08T08:42:44;4.10;99.90
36752;DHT22;22718;49.494;7.036;2024-03-08T08:45:11;4.00;99.90
36752;DHT22;22718;49.494;7.036;2024-03-08T08:47:37;4.00;99.90
36752;DHT22;22718;49.494;7.036;2024-03-08T08:50:03;4.10;99.90
36752;DHT22;22718;49.494;7.036;2024-03-08T08:52:32;4.00;99.90
36752;DHT22;22718;49.494;7.036;2024-03-08T08:54:58;3.90;99.90
36752;DHT22;22718;49.494;7.036;2024-03-08T08:57:23;4.10;99.90
36752;DHT22;22718;49.494;7.036;2024-03-08T08:59:49;4.40;99.90
36752;DHT22;22718;49.494;7.036;2024-03-08T09:02:16;4.80;99.90
36752;DHT22;22718;49.494;7.036;2024-03-08T09:04:46;4.90;99.90
36752;DHT22;22718;49.494;7.036;2024-03-08T09:07:13;4.90;99.90
36752;DHT22;22718;49.494;7.036;2024-03-08T09:09:39;5.10;99.90
36752;DHT22;22718;49.494;7.036;2024-03-08T09:12:05;5.10;99.90
36752;DHT22;22718;49.494;7.036;2024-03-08T09:14:30;5.20;99.90
36752;DHT22;22718;49.494;7.036;2024-03-08T09:16:56;5.20;99.90
36752;DHT22;22718;49.494;7.036;2024-03-08T09:19:21;5.00;99.90
36752;DHT22;22718;49.494;7.036;2024-03-08T09:21:55;5.20;99.90
36752;DHT22;22718;49.494;7.036;2024-03-08T09:24:20;5.20;99.90
36752;DHT22;22718;49.494;7.036;2024-03-08T09:26:46;5.00;99.90
36752;DHT22;22718;49.494;7.036;2024-03-08T09:29:12;5.20;99.90
36752;DHT22;22718;49.494;7.036;2024-03-08T09:31:37;5.20;99.90
36752;DHT22;22718;49.494;7.036;2024-03-08T09:34:06;5.50;99.90
36752;DHT22;22718;49.494;7.036;2024-03-08T09:36:34;5.50;99.90
36752;DHT22;22718;49.494;7.036;2024-03-08T09:38:59;5.50;99.90
36752;DHT22;22718;49.494;7.036;2024-03-08T09:41:26;5.60;99.90
36752;DHT22;22718;49.494;7.036;2024-03-08T09:43:52;5.80;99.90
36752;DHT22;22718;49.494;7.036;2024-03-08T09:46:19;5.80;99.90
36752;DHT22;22718;49.494;7.036;2024-03-08T09:48:45;5.80;99.90
36752;DHT22;22718;49.494;7.036;2024-03-08T09:51:12;5.70;99.90
36752;DHT22;22718;49.494;7.036;2024-03-08T09:53:41;5.60;99.90
36752;DHT22;22718;49.494;7.036;2024-03-08T09:56:08;5.60;99.90
36752;DHT22;22718;49.494;7.036;2024-03-08T09:58:33;5.50;99.90
36752;DHT22;22718;49.494;7.036;2024-03-08T10:00:59;5.60;99.90
36752;DHT22;22718;49.494;7.036;2024-03-08T10:03:30;5.70;99.90
36752;DHT22;22718;49.494;7.036;2024-03-08T10:05:57;5.80;99.90
36752;DHT22;22718;49.494;7.036;2024-03-08T10:08:28;5.80;99.90
36752;DHT22;22718;49.494;7.036;2024-03-08T10:10:57;5.80;99.90
36752;DHT22;22718;49.494;7.036;2024-03-08T10:13:26;5.90;99.90
36752;DHT22;22718;49.494;7.036;2024-03-08T10:15:55;5.70;99.90
36752;DHT22;22718;49.494;7.036;2024-03-08T10:18:21;5.90;99.90
36752;DHT22;22718;49.494;7.036;2024-03-08T10:21:02;6.10;99.90
36752;DHT22;22718;49.494;7.036;2024-03-08T10:23:30;6.20;99.90
36752;DHT22;22718;49.494;7.036;2024-03-08T10:25:55;6.00;99.90
36752;DHT22;22718;49.494;7.036;2024-03-08T10:28:23;6.00;99.90
36752;DHT22;22718;49.494;7.036;2024-03-08T10:30:51;6.00;99.90
36752;DHT22;22718;49.494;7.036;2024-03-08T10:33:18;6.20;99.90
36752;DHT22;22718;49.494;7.036;2024-03-08T10:35:44;6.00;99.90
36752;DHT22;22718;49.494;7.036;2024-03-08T10:38:10;6.40;99.90
36752;DHT22;22718;49.494;7.036;2024-03-08T10:40:40;6.60;99.90
36752;DHT22;22718;49.494;7.036;2024-03-08T10:43:15;6.80;99.90
36752;DHT22;22718;49.494;7.036;2024-03-08T10:45:45;6.80;99.90
36752;DHT22;22718;49.494;7.036;2024-03-08T10:50:43;7.00;99.90
36752;DHT22;22718;49.494;7.036;2024-03-08T10:53:21;7.20;99.90
36752;DHT22;22718;49.494;7.036;2024-03-08T10:55:49;7.30;99.90
36752;DHT22;22718;49.494;7.036;2024-03-08T10:58:25;7.40;99.90
36752;DHT22;22718;49.494;7.036;2024-03-08T11:00:56;7.60;99.90
36752;DHT22;22718;49.494;7.036;2024-03-08T11:06:29;7.70;99.90
36752;DHT22;22718;49.494;7.036;2024-03-08T11:08:57;7.50;99.90
36752;DHT22;22718;49.494;7.036;2024-03-08T11:11:31;7.40;99.90
36752;DHT22;22718;49.494;7.036;2024-03-08T11:13:58;7.50;99.90
36752;DHT22;22718;49.494;7.036;2024-03-08T11:19:06;7.40;99.90
36752;DHT22;22718;49.494;7.036;2024-03-08T11:21:40;7.50;99.90
36752;DHT22;22718;49.494;7.036;2024-03-08T11:24:12;7.70;99.90
36752;DHT22;22718;49.494;7.036;2024-03-08T11:26:39;7.70;99.90
36752;DHT22;22718;49.494;7.036;2024-03-08T11:32:17;8.00;99.90
36752;DHT22;22718;49.494;7.036;2024-03-08T11:34:48;7.90;99.90
36752;DHT22;22718;49.494;7.036;2024-03-08T11:37:17;8.10;99.90
36752;DHT22;22718;49.494;7.036;2024-03-08T11:39:54;8.10;99.90
36752;DHT22;22718;49.494;7.036;2024-03-08T11:42:25;8.00;99.90
36752;DHT22;22718;49.494;7.036;2024-03-08T11:44:54;7.80;99.90
36752;DHT22;22718;49.494;7.036;2024-03-08T11:47:20;7.80;99.90
36752;DHT22;22718;49.494;7.036;2024-03-08T11:49:49;7.80;99.90
36752;DHT22;22718;49.494;7.036;2024-03-08T11:52:18;7.90;99.90
36752;DHT22;22718;49.494;7.036;2024-03-08T11:54:54;7.90;99.90
36752;DHT22;22718;49.494;7.036;2024-03-08T11:57:25;8.00;99.90
36752;DHT22;22718;49.494;7.036;2024-03-08T11:59:52;8.00;99.90
36752;DHT22;22718;49.494;7.036;2024-03-08T12:02:18;7.90;99.90
36752;DHT22;22718;49.494;7.036;2024-03-08T12:04:45;7.80;99.90
36752;DHT22;22718;49.494;7.036;2024-03-08T12:07:14;7.90;99.90
36752;DHT22;22718;49.494;7.036;2024-03-08T12:09:42;8.00;99.90
36752;DHT22;22718;49.494;7.036;2024-03-08T12:12:16;8.20;99.90
36752;DHT22;22718;49.494;7.036;2024-03-08T12:14:43;8.40;99.90
36752;DHT22;22718;49.494;7.036;2024-03-08T12:17:10;8.20;99.90
36752;DHT22;22718;49.494;7.036;2024-03-08T12:19:36;8.10;99.90
36752;DHT22;22718;49.494;7.036;2024-03-08T12:22:09;8.10;99.90
36752;DHT22;22718;49.494;7.036;2024-03-08T12:24:35;8.30;99.90
36752;DHT22;22718;49.494;7.036;2024-03-08T12:27:23;8.40;99.90
36752;DHT22;22718;49.494;7.036;2024-03-08T12:29:48;8.40;99.90
36752;DHT22;22718;49.494;7.036;2024-03-08T12:32:16;8.50;99.90
36752;DHT22;22718;49.494;7.036;2024-03-08T12:34:42;8.60;99.90
36752;DHT22;22718;49.494;7.036;2024-03-08T12:37:08;8.70;99.90
36752;DHT22;22718;49.494;7.036;2024-03-08T12:39:35;8.60;99.90
36752;DHT22;22718;49.494;7.036;2024-03-08T12:42:02;8.60;99.90
36752;DHT22;22718;49.494;7.036;2024-03-08T12:44:28;8.70;99.90
36752;DHT22;22718;49.494;7.036;2024-03-08T12:46:59;8.80;99.90
36752;DHT22;22718;49.494;7.036;2024-03-08T12:49:37;8.80;99.90
36752;DHT22;22718;49.494;7.036;2024-03-08T12:52:03;8.90;99.90
36752;DHT22;22718;49.494;7.036;2024-03-08T12:54:35;9.00;99.90
36752;DHT22;22718;49.494;7.036;2024-03-08T12:57:02;9.00;99.90
36752;DHT22;22718;49.494;7.036;2024-03-08T12:59:31;8.90;99.90
36752;DHT22;22718;49.494;7.036;2024-03-08T13:01:57;8.70;99.90
36752;DHT22;22718;49.494;7.036;2024-03-08T13:04:26;8.70;99.90
36752;DHT22;22718;49.494;7.036;2024-03-08T13:06:54;8.70;99.90
36752;DHT22;22718;49.494;7.036;2024-03-08T13:09:24;8.70;99.90
36752;DHT22;22718;49.494;7.036;2024-03-08T13:11:52;8.70;99.90
36752;DHT22;22718;49.494;7.036;2024-03-08T13:14:21;8.70;99.90
36752;DHT22;22718;49.494;7.036;2024-03-08T13:16:47;8.50;99.90
36752;DHT22;22718;49.494;7.036;2024-03-08T13:19:48;8.60;99.90
36752;DHT22;22718;49.494;7.036;2024-03-08T13:22:27;8.60;99.90
36752;DHT22;22718;49.494;7.036;2024-03-08T13:25:08;8.50;99.90
36752;DHT22;22718;49.494;7.036;2024-03-08T13:28:03;8.50;99.90
36752;DHT22;22718;49.494;7.036;2024-03-08T13:31:55;8.40;99.90
36752;DHT22;22718;49.494;7.036;2024-03-08T13:38:42;8.40;99.90
36752;DHT22;22718;49.494;7.036;2024-03-08T13:41:29;8.50;99.90
36752;DHT22;22718;49.494;7.036;2024-03-08T13:43:55;8.50;99.90
36752;DHT22;22718;49.494;7.036;2024-03-08T13:46:21;8.30;99.90
36752;DHT22;22718;49.494;7.036;2024-03-08T13:48:46;8.20;99.90
36752;DHT22;22718;49.494;7.036;2024-03-08T13:51:13;8.10;99.90
36752;DHT22;22718;49.494;7.036;2024-03-08T13:53:48;8.20;99.90
36752;DHT22;22718;49.494;7.036;2024-03-08T13:56:14;8.20;99.90
36752;DHT22;22718;49.494;7.036;2024-03-08T13:58:40;8.20;99.90
36752;DHT22;22718;49.494;7.036;2024-03-08T14:01:06;8.10;99.90
36752;DHT22;22718;49.494;7.036;2024-03-08T14:03:36;8.20;99.90
36752;DHT22;22718;49.494;7.036;2024-03-08T14:06:21;8.20;99.90
36752;DHT22;22718;49.494;7.036;2024-03-08T14:09:08;8.20;99.90
36752;DHT22;22718;49.494;7.036;2024-03-08T14:22:18;8.10;99.90
36752;DHT22;22718;49.494;7.036;2024-03-08T14:28:26;8.00;99.90
36752;DHT22;22718;49.494;7.036;2024-03-08T14:31:27;7.90;99.90
36752;DHT22;22718;49.494;7.036;2024-03-08T14:37:41;7.80;99.90
36752;DHT22;22718;49.494;7.036;2024-03-08T14:40:56;7.90;99.90
36752;DHT22;22718;49.494;7.036;2024-03-08T14:44:02;7.80;99.90
36752;DHT22;22718;49.494;7.036;2024-03-08T14:49:45;7.80;99.90
36752;DHT22;22718;49.494;7.036;2024-03-08T14:52:20;7.80;99.90
36752;DHT22;22718;49.494;7.036;2024-03-08T14:55:10;7.90;99.90
36752;DHT22;22718;49.494;7.036;2024-03-08T14:57:50;7.90;99.90
36752;DHT22;22718;49.494;7.036;2024-03-08T15:00:20;7.80;99.90
36752;DHT22;22718;49.494;7.036;2024-03-08T15:02:58;7.80;99.90
36752;DHT22;22718;49.494;7.036;2024-03-08T15:05:25;7.90;99.90
36752;DHT22;22718;49.494;7.036;2024-03-08T15:07:58;7.80;99.90
36752;DHT22;22718;49.494;7.036;2024-03-08T15:10:27;7.70;99.90
36752;DHT22;22718;49.494;7.036;2024-03-08T15:12:54;7.60;99.90
36752;DHT22;22718;49.494;7.036;2024-03-08T15:15:21;7.60;99.90
36752;DHT22;22718;49.494;7.036;2024-03-08T15:17:50;7.60;99.90
36752;DHT22;22718;49.494;7.036;2024-03-08T15:20:17;7.60;99.90
36752;DHT22;22718;49.494;7.036;2024-03-08T15:22:57;7.50;99.90
36752;DHT22;22718;49.494;7.036;2024-03-08T15:25:24;7.40;99.90
36752;DHT22;22718;49.494;7.036;2024-03-08T15:27:53;7.40;99.90
36752;DHT22;22718;49.494;7.036;2024-03-08T15:30:30;7.40;99.90
36752;DHT22;22718;49.494;7.036;2024-03-08T15:32:58;7.30;99.90
36752;DHT22;22718;49.494;7.036;2024-03-08T15:35:26;7.30;99.90
36752;DHT22;22718;49.494;7.036;2024-03-08T15:37:52;7.30;99.90
36752;DHT22;22718;49.494;7.036;2024-03-08T15:40:20;7.30;99.90
36752;DHT22;22718;49.494;7.036;2024-03-08T15:45:15;7.20;99.90
36752;DHT22;22718;49.494;7.036;2024-03-08T15:47:42;7.20;99.90
36752;DHT22;22718;49.494;7.036;2024-03-08T15:50:09;7.20;99.90
36752;DHT22;22718;49.494;7.036;2024-03-08T15:52:38;7.10;99.90
36752;DHT22;22718;49.494;7.036;2024-03-08T15:55:07;7.10;99.90
36752;DHT22;22718;49.494;7.036;2024-03-08T15:57:33;7.10;99.90
36752;DHT22;22718;49.494;7.036;2024-03-08T16:00:03;7.00;99.90
36752;DHT22;22718;49.494;7.036;2024-03-08T16:02:40;7.00;99.90
36752;DHT22;22718;49.494;7.036;2024-03-08T16:05:06;7.00;99.90
36752;DHT22;22718;49.494;7.036;2024-03-08T16:07:37;7.00;99.90
36752;DHT22;22718;49.494;7.036;2024-03-08T16:10:07;7.00;99.90
36752;DHT22;22718;49.494;7.036;2024-03-08T16:12:36;7.00;99.90
36752;DHT22;22718;49.494;7.036;2024-03-08T16:15:07;7.00;99.90
36752;DHT22;22718;49.494;7.036;2024-03-08T16:17:34;6.90;99.90
36752;DHT22;22718;49.494;7.036;2024-03-08T16:20:00;6.90;99.90
36752;DHT22;22718;49.494;7.036;2024-03-08T16:22:27;6.90;99.90
36752;DHT22;22718;49.494;7.036;2024-03-08T16:24:53;6.90;99.90
36752;DHT22;22718;49.494;7.036;2024-03-08T16:27:27;6.80;99.90
36752;DHT22;22718;49.494;7.036;2024-03-08T16:29:54;6.80;99.90
36752;DHT22;22718;49.494;7.036;2024-03-08T16:32:27;6.70;99.90
36752;DHT22;22718;49.494;7.036;2024-03-08T16:34:55;6.70;99.90
36752;DHT22;22718;49.494;7.036;2024-03-08T16:37:20;6.70;99.90
36752;DHT22;22718;49.494;7.036;2024-03-08T16:39:53;6.60;99.90
36752;DHT22;22718;49.494;7.036;2024-03-08T16:42:19;6.60;99.90
36752;DHT22;22718;49.494;7.036;2024-03-08T16:44:47;6.50;99.90
36752;DHT22;22718;49.494;7.036;2024-03-08T16:47:41;6.50;99.90
36752;DHT22;22718;49.494;7.036;2024-03-08T16:50:09;6.40;99.90
36752;DHT22;22718;49.494;7.036;2024-03-08T16:52:39;6.40;99.90
36752;DHT22;22718;49.494;7.036;2024-03-08T16:55:06;6.30;99.90
36752;DHT22;22718;49.494;7.036;2024-03-08T16:57:47;6.30;99.90
36752;DHT22;22718;49.494;7.036;2024-03-08T17:00:20;6.30;99.90
36752;DHT22;22718;49.494;7.036;2024-03-08T17:02:54;6.20;99.90
36752;DHT22;22718;49.494;7.036;2024-03-08T17:05:23;6.20;99.90
36752;DHT22;22718;49.494;7.036;2024-03-08T17:07:56;6.10;99.90
36752;DHT22;22718;49.494;7.036;2024-03-08T17:10:24;6.10;99.90
36752;DHT22;22718;49.494;7.036;2024-03-08T17:12:51;6.00;99.90
36752;DHT22;22718;49.494;7.036;2024-03-08T17:15:27;6.00;99.90
36752;DHT22;22718;49.494;7.036;2024-03-08T17:17:55;6.00;99.90
36752;DHT22;22718;49.494;7.036;2024-03-08T17:20:25;5.90;99.90
36752;DHT22;22718;49.494;7.036;2024-03-08T17:22:53;5.90;99.90
36752;DHT22;22718;49.494;7.036;2024-03-08T17:25:27;5.80;99.90
36752;DHT22;22718;49.494;7.036;2024-03-08T17:27:55;5.80;99.90
36752;DHT22;22718;49.494;7.036;2024-03-08T17:30:21;5.70;99.90
36752;DHT22;22718;49.494;7.036;2024-03-08T17:33:01;5.70;99.90
36752;DHT22;22718;49.494;7.036;2024-03-08T17:35:39;5.60;99.90
36752;DHT22;22718;49.494;7.036;2024-03-08T17:38:08;5.60;99.90
36752;DHT22;22718;49.494;7.036;2024-03-08T17:41:01;5.50;99.90
36752;DHT22;22718;49.494;7.036;2024-03-08T17:43:45;5.50;99.90
36752;DHT22;22718;49.494;7.036;2024-03-08T17:46:14;5.50;99.90
36752;DHT22;22718;49.494;7.036;2024-03-08T17:48:41;5.40;99.90
36752;DHT22;22718;49.494;7.036;2024-03-08T17:51:11;5.30;99.90
36752;DHT22;22718;49.494;7.036;2024-03-08T17:54:17;5.30;99.90
36752;DHT22;22718;49.494;7.036;2024-03-08T17:56:49;5.30;99.90
36752;DHT22;22718;49.494;7.036;2024-03-08T17:59:15;5.20;99.90
36752;DHT22;22718;49.494;7.036;2024-03-08T18:01:41;5.20;99.90
36752;DHT22;22718;49.494;7.036;2024-03-08T18:04:08;5.20;99.90
36752;DHT22;22718;49.494;7.036;2024-03-08T18:06:36;5.20;99.90
36752;DHT22;22718;49.494;7.036;2024-03-08T18:09:24;5.20;99.90
36752;DHT22;22718;49.494;7.036;2024-03-08T18:11:51;5.10;99.90
36752;DHT22;22718;49.494;7.036;2024-03-08T18:14:20;5.10;99.90
36752;DHT22;22718;49.494;7.036;2024-03-08T18:16:48;5.10;99.90
36752;DHT22;22718;49.494;7.036;2024-03-08T18:19:41;5.10;99.90
36752;DHT22;22718;49.494;7.036;2024-03-08T18:22:08;5.00;99.90
36752;DHT22;22718;49.494;7.036;2024-03-08T18:24:43;5.00;99.90
36752;DHT22;22718;49.494;7.036;2024-03-08T18:27:42;5.00;99.90
36752;DHT22;22718;49.494;7.036;2024-03-08T18:30:07;4.90;99.90
36752;DHT22;22718;49.494;7.036;2024-03-08T18:32:55;4.90;99.90
36752;DHT22;22718;49.494;7.036;2024-03-08T18:35:53;4.90;99.90
36752;DHT22;22718;49.494;7.036;2024-03-08T18:38:35;4.90;99.90
36752;DHT22;22718;49.494;7.036;2024-03-08T18:41:31;4.90;99.90
36752;DHT22;22718;49.494;7.036;2024-03-08T18:44:25;4.90;99.90
36752;DHT22;22718;49.494;7.036;2024-03-08T18:47:02;5.00;99.90
36752;DHT22;22718;49.494;7.036;2024-03-08T18:49:34;4.90;99.90
36752;DHT22;22718;49.494;7.036;2024-03-08T18:52:13;4.90;99.90
36752;DHT22;22718;49.494;7.036;2024-03-08T18:54:50;5.00;99.90
36752;DHT22;22718;49.494;7.036;2024-03-08T18:57:28;5.00;99.90
36752;DHT22;22718;49.494;7.036;2024-03-08T19:00:03;5.10;99.90
36752;DHT22;22718;49.494;7.036;2024-03-08T19:02:38;5.10;99.90
36752;DHT22;22718;49.494;7.036;2024-03-08T19:08:23;5.10;99.90
36752;DHT22;22718;49.494;7.036;2024-03-08T19:10:49;5.10;99.90
36752;DHT22;22718;49.494;7.036;2024-03-08T19:13:20;5.10;99.90
36752;DHT22;22718;49.494;7.036;2024-03-08T19:15:50;5.10;99.90
36752;DHT22;22718;49.494;7.036;2024-03-08T19:18:30;5.20;99.90
36752;DHT22;22718;49.494;7.036;2024-03-08T19:21:01;5.10;99.90
36752;DHT22;22718;49.494;7.036;2024-03-08T19:23:37;5.20;99.90
36752;DHT22;22718;49.494;7.036;2024-03-08T19:26:10;5.20;99.90
36752;DHT22;22718;49.494;7.036;2024-03-08T19:28:40;5.20;99.90
36752;DHT22;22718;49.494;7.036;2024-03-08T19:31:09;5.20;99.90
36752;DHT22;22718;49.494;7.036;2024-03-08T19:33:37;5.20;99.90
36752;DHT22;22718;49.494;7.036;2024-03-08T19:36:09;5.20;99.90
36752;DHT22;22718;49.494;7.036;2024-03-08T19:38:42;5.20;99.90
36752;DHT22;22718;49.494;7.036;2024-03-08T19:41:08;5.20;99.90
36752;DHT22;22718;49.494;7.036;2024-03-08T19:43:37;5.20;99.90
36752;DHT22;22718;49.494;7.036;2024-03-08T19:46:03;5.10;99.90
36752;DHT22;22718;49.494;7.036;2024-03-08T19:48:34;5.10;99.90
36752;DHT22;22718;49.494;7.036;2024-03-08T20:01:24;5.10;99.90
36752;DHT22;22718;49.494;7.036;2024-03-08T20:04:21;5.20;99.90
36752;DHT22;22718;49.494;7.036;2024-03-08T20:14:27;5.30;99.90
36752;DHT22;22718;49.494;7.036;2024-03-08T20:38:24;5.60;99.90
36752;DHT22;22718;49.494;7.036;2024-03-08T20:41:33;5.70;99.90
36752;DHT22;22718;49.494;7.036;2024-03-08T20:45:00;5.80;99.90
36752;DHT22;22718;49.494;7.036;2024-03-08T20:51:48;5.90;99.90
36752;DHT22;22718;49.494;7.036;2024-03-08T21:08:17;6.00;99.90
36752;DHT22;22718;49.494;7.036;2024-03-08T21:11:58;6.10;99.90
36752;DHT22;22718;49.494;7.036;2024-03-08T21:15:53;6.10;99.90
36752;DHT22;22718;49.494;7.036;2024-03-08T21:29:03;6.10;99.90
36752;DHT22;22718;49.494;7.036;2024-03-08T21:31:55;6.10;99.90
36752;DHT22;22718;49.494;7.036;2024-03-08T21:37:24;6.20;99.90
36752;DHT22;22718;49.494;7.036;2024-03-08T21:40:36;6.10;99.90
36752;DHT22;22718;49.494;7.036;2024-03-08T21:43:28;6.10;99.90
36752;DHT22;22718;49.494;7.036;2024-03-08T21:52:15;6.10;99.90
36752;DHT22;22718;49.494;7.036;2024-03-08T22:01:04;6.00;99.90
36752;DHT22;22718;49.494;7.036;2024-03-08T22:03:36;6.00;99.90
36752;DHT22;22718;49.494;7.036;2024-03-08T22:06:06;6.00;99.90
36752;DHT22;22718;49.494;7.036;2024-03-08T22:08:51;6.00;99.90
36752;DHT22;22718;49.494;7.036;2024-03-08T22:11:23;6.00;99.90